Time;durP1;ratioP1;P1;durP2;ratioP2;P2;SDS_P1;SDS_P2;PMS_P1;PMS_P2;Temp;Humidity;BMP_temperature;BMP_pressure;BME280_temperature;BME280_humidity;BME280_pressure;Samples;Min_cycle;Max_cycle;Signal;HPM_P1;HPM_P2
2022/04/02 00:02:22;;;;;;;;;;;22.30;48.10;;;;;;5100608;28;1964;-36
2022/04/02 00:04:49;;;;;;;;;;;22.30;48.10;;;;;;5099942;28;988;-39
2022/04/02 00:07:16;;;;;;;;;;;22.30;48.00;;;;;;5100453;28;940;-38
2022/04/02 00:09:43;;;;;;;;;;;22.30;47.80;;;;;;5100147;28;1022;-37
2022/04/02 00:12:10;;;;;;;;;;;22.30;47.80;;;;;;5100054;28;939;-37
2022/04/02 00:14:36;;;;;;;;;;;22.30;47.80;;;;;;5100496;28;1019;-37
2022/04/02 00:17:03;;;;;;;;;;;22.30;47.70;;;;;;5100346;28;992;-37
2022/04/02 00:19:32;;;;;;;;;;;22.20;47.50;;;;;;5099734;28;869;-37
2022/04/02 00:21:58;;;;;;;;;;;22.20;47.80;;;;;;5099717;28;1991;-37
2022/04/02 00:24:25;;;;;;;;;;;22.30;47.60;;;;;;5099618;28;996;-37
2022/04/02 00:26:52;;;;;;;;;;;22.20;47.50;;;;;;5100029;28;869;-37
2022/04/02 00:29:19;;;;;;;;;;;22.20;47.50;;;;;;5099034;28;1902;-37
2022/04/02 00:31:46;;;;;;;;;;;22.20;47.60;;;;;;5100433;28;923;-37
2022/04/02 00:34:13;;;;;;;;;;;22.20;47.40;;;;;;5100169;28;1000;-36
2022/04/02 00:36:41;;;;;;;;;;;22.20;47.50;;;;;;5099616;28;1016;-36
2022/04/02 00:39:08;;;;;;;;;;;22.20;47.60;;;;;;5099957;28;985;-38
2022/04/02 00:41:35;;;;;;;;;;;22.20;47.50;;;;;;5099884;28;1905;-37
2022/04/02 00:44:08;;;;;;;;;;;22.20;47.30;;;;;;5099816;28;1126;-37
2022/04/02 00:46:35;;;;;;;;;;;22.20;47.30;;;;;;5099096;28;1035;-37
2022/04/02 00:49:01;;;;;;;;;;;22.20;47.30;;;;;;5099620;28;981;-38
2022/04/02 00:51:28;;;;;;;;;;;22.20;47.30;;;;;;5099767;28;940;-37
2022/04/02 00:53:56;;;;;;;;;;;22.20;47.30;;;;;;5099924;28;956;-38
2022/04/02 00:56:23;;;;;;;;;;;22.20;47.40;;;;;;5099570;28;1036;-38
2022/04/02 00:58:50;;;;;;;;;;;22.20;47.40;;;;;;5099547;28;984;-37
2022/04/02 01:01:17;;;;;;;;;;;22.10;47.20;;;;;;5100006;28;1902;-36
2022/04/02 01:03:44;;;;;;;;;;;22.10;47.30;;;;;;5099729;28;1017;-36
2022/04/02 01:06:11;;;;;;;;;;;22.10;47.30;;;;;;5099316;28;972;-37
2022/04/02 01:08:38;;;;;;;;;;;22.10;47.30;;;;;;5099642;28;1010;-36
2022/04/02 01:11:07;;;;;;;;;;;22.10;47.40;;;;;;5099499;28;2220;-37
2022/04/02 01:13:34;;;;;;;;;;;22.10;47.40;;;;;;5099575;28;1120;-36
2022/04/02 01:16:01;;;;;;;;;;;22.00;47.30;;;;;;5099328;28;991;-36
2022/04/02 01:18:28;;;;;;;;;;;22.10;47.20;;;;;;5099608;28;948;-38
2022/04/02 01:20:55;;;;;;;;;;;22.00;47.20;;;;;;5099456;28;1975;-36
2022/04/02 01:23:29;;;;;;;;;;;22.00;47.30;;;;;;5098511;28;960;-37
2022/04/02 01:25:56;;;;;;;;;;;22.00;47.30;;;;;;5098643;28;1023;-36
2022/04/02 01:28:23;;;;;;;;;;;22.00;47.20;;;;;;5098955;28;904;-37
2022/04/02 01:30:50;;;;;;;;;;;22.00;47.20;;;;;;5099162;28;1013;-36
2022/04/02 01:33:16;;;;;;;;;;;22.00;47.20;;;;;;5099257;28;1015;-37
2022/04/02 01:35:43;;;;;;;;;;;22.00;47.10;;;;;;5098402;28;1082;-37
2022/04/02 01:38:10;;;;;;;;;;;22.00;47.10;;;;;;5098858;28;1015;-37
2022/04/02 01:40:38;;;;;;;;;;;22.00;47.10;;;;;;5098868;28;976;-38
2022/04/02 01:43:05;;;;;;;;;;;22.00;47.10;;;;;;5098024;28;1910;-37
2022/04/02 01:45:32;;;;;;;;;;;22.00;47.30;;;;;;5098718;28;1020;-36
2022/04/02 01:47:58;;;;;;;;;;;22.00;47.30;;;;;;5099008;28;946;-37
2022/04/02 01:50:25;;;;;;;;;;;22.00;47.20;;;;;;5098472;28;1000;-36
2022/04/02 01:52:52;;;;;;;;;;;21.90;47.30;;;;;;5098878;28;1012;-37
2022/04/02 01:55:18;;;;;;;;;;;21.90;47.20;;;;;;5098623;28;1035;-38
2022/04/02 01:57:47;;;;;;;;;;;21.90;47.10;;;;;;5098833;28;976;-37
2022/04/02 02:00:15;;;;;;;;;;;21.90;47.30;;;;;;5098907;28;989;-36
2022/04/02 02:02:41;;;;;;;;;;;21.90;47.20;;;;;;5098446;28;1978;-36
2022/04/02 02:05:08;;;;;;;;;;;21.90;47.30;;;;;;5098638;28;1043;-40
2022/04/02 02:07:35;;;;;;;;;;;21.90;47.10;;;;;;5098500;28;955;-37
2022/04/02 02:10:02;;;;;;;;;;;21.90;47.10;;;;;;5098464;28;1001;-36
2022/04/02 02:12:30;;;;;;;;;;;21.90;47.10;;;;;;5098824;28;925;-37
2022/04/02 02:14:58;;;;;;;;;;;21.80;47.10;;;;;;5098780;28;980;-37
2022/04/02 02:17:24;;;;;;;;;;;21.90;47.20;;;;;;5098886;28;1036;-37
2022/04/02 02:19:51;;;;;;;;;;;21.90;47.10;;;;;;5098570;28;1063;-37
2022/04/02 02:22:18;;;;;;;;;;;21.90;47.10;;;;;;5098083;28;2183;-37
2022/04/02 02:24:45;;;;;;;;;;;21.90;47.20;;;;;;5098432;28;959;-36
2022/04/02 02:27:11;;;;;;;;;;;21.90;47.30;;;;;;5098745;28;1027;-36
2022/04/02 02:29:38;;;;;;;;;;;21.80;47.00;;;;;;5098443;28;947;-37
2022/04/02 02:32:07;;;;;;;;;;;21.80;47.10;;;;;;5098655;28;1021;-37
2022/04/02 02:37:37;;;;;;;;;;;21.80;47.00;;;;;;5102064;28;981;-37
2022/04/02 02:40:05;;;;;;;;;;;21.80;47.10;;;;;;5102363;28;979;-36
2022/04/02 02:42:31;;;;;;;;;;;21.80;47.10;;;;;;5102242;28;1906;-37
2022/04/02 02:44:58;;;;;;;;;;;21.80;47.10;;;;;;5101835;28;944;-37
2022/04/02 02:47:26;;;;;;;;;;;21.80;47.10;;;;;;5102056;28;1035;-37
2022/04/02 02:49:53;;;;;;;;;;;21.80;47.10;;;;;;5102477;28;1038;-38
2022/04/02 02:52:20;;;;;;;;;;;21.80;47.10;;;;;;5102379;28;1003;-36
2022/04/02 02:54:47;;;;;;;;;;;21.80;47.10;;;;;;5101832;28;1032;-37
2022/04/02 02:57:14;;;;;;;;;;;21.70;47.10;;;;;;5101967;28;976;-37
2022/04/02 02:59:40;;;;;;;;;;;21.80;47.20;;;;;;5102223;28;1008;-37
2022/04/02 03:02:09;;;;;;;;;;;21.80;47.10;;;;;;5101514;28;1994;-36
2022/04/02 03:04:37;;;;;;;;;;;21.80;47.10;;;;;;5102136;28;1141;-37
2022/04/02 03:07:04;;;;;;;;;;;21.80;47.20;;;;;;5101772;28;975;-37
2022/04/02 03:09:31;;;;;;;;;;;21.70;47.00;;;;;;5101800;28;1003;-37
2022/04/02 03:11:58;;;;;;;;;;;21.70;47.00;;;;;;5101939;28;1130;-37
2022/04/02 03:14:25;;;;;;;;;;;21.70;47.00;;;;;;5102207;28;1036;-37
2022/04/02 03:16:51;;;;;;;;;;;21.70;47.10;;;;;;5101755;28;943;-37
2022/04/02 03:19:18;;;;;;;;;;;21.70;47.10;;;;;;5101453;28;992;-36
2022/04/02 03:21:46;;;;;;;;;;;21.70;47.20;;;;;;5101358;28;1898;-36
2022/04/02 03:24:13;;;;;;;;;;;21.70;47.00;;;;;;5102008;28;944;-37
2022/04/02 03:26:40;;;;;;;;;;;21.70;47.10;;;;;;5101396;28;928;-37
2022/04/02 03:29:06;;;;;;;;;;;21.70;47.10;;;;;;5101396;28;948;-36
2022/04/02 03:31:33;;;;;;;;;;;21.70;47.00;;;;;;5101580;28;952;-37
2022/04/02 03:34:00;;;;;;;;;;;21.70;47.00;;;;;;5101511;28;940;-37
2022/04/02 03:36:27;;;;;;;;;;;21.70;46.90;;;;;;5101238;28;1016;-38
2022/04/02 03:38:56;;;;;;;;;;;21.80;47.00;;;;;;5101284;28;1034;-36
2022/04/02 03:41:25;;;;;;;;;;;21.70;47.00;;;;;;5098939;28;991;-38
2022/04/02 03:43:53;;;;;;;;;;;21.70;47.00;;;;;;5099425;28;1902;-37
2022/04/02 03:49:04;;;;;;;;;;;21.70;46.90;;;;;;5099776;28;876;-37
2022/04/02 03:51:31;;;;;;;;;;;21.70;47.00;;;;;;5099603;28;861;-36
2022/04/02 03:54:00;;;;;;;;;;;21.70;47.00;;;;;;5099373;28;1040;-37
2022/04/02 03:56:27;;;;;;;;;;;21.70;47.00;;;;;;5100649;28;981;-39
2022/04/02 03:58:54;;;;;;;;;;;21.70;47.00;;;;;;5100282;28;1018;-37
2022/04/02 04:01:21;;;;;;;;;;;21.70;46.90;;;;;;5099738;28;1184;-37
2022/04/02 04:03:48;;;;;;;;;;;21.70;47.00;;;;;;5100768;28;1964;-36
2022/04/02 04:06:15;;;;;;;;;;;21.70;47.00;;;;;;5100289;28;962;-36
2022/04/02 04:08:41;;;;;;;;;;;21.70;47.10;;;;;;5100701;28;945;-38
2022/04/02 04:11:10;;;;;;;;;;;21.70;47.00;;;;;;5100602;28;1027;-37
2022/04/02 04:13:38;;;;;;;;;;;21.60;47.10;;;;;;5100874;28;943;-36
2022/04/02 04:16:07;;;;;;;;;;;21.70;46.90;;;;;;5100260;28;996;-37
2022/04/02 04:18:35;;;;;;;;;;;21.60;46.90;;;;;;5100099;28;983;-37
2022/04/02 04:21:01;;;;;;;;;;;21.70;47.00;;;;;;5099879;28;943;-36
2022/04/02 04:23:28;;;;;;;;;;;21.60;47.00;;;;;;5100252;28;1978;-37
2022/04/02 04:25:55;;;;;;;;;;;21.70;47.00;;;;;;5100385;28;944;-37
2022/04/02 04:28:23;;;;;;;;;;;21.70;47.00;;;;;;5100337;28;1040;-36
2022/04/02 04:30:50;;;;;;;;;;;21.70;47.00;;;;;;5099997;28;971;-37
2022/04/02 04:33:17;;;;;;;;;;;21.60;46.90;;;;;;5100087;28;1004;-36
2022/04/02 04:35:44;;;;;;;;;;;21.60;46.90;;;;;;5100281;28;936;-36
2022/04/02 04:38:10;;;;;;;;;;;21.60;47.00;;;;;;5100115;28;1000;-37
2022/04/02 04:40:37;;;;;;;;;;;21.70;47.00;;;;;;5099576;28;1019;-37
2022/04/02 04:43:04;;;;;;;;;;;21.60;46.90;;;;;;5100001;28;1901;-36
2022/04/02 04:45:32;;;;;;;;;;;21.70;46.90;;;;;;5099821;28;985;-36
2022/04/02 04:47:59;;;;;;;;;;;21.60;47.00;;;;;;5099381;28;928;-36
2022/04/02 04:50:26;;;;;;;;;;;21.60;46.80;;;;;;5100012;28;943;-36
2022/04/02 04:52:53;;;;;;;;;;;21.60;46.80;;;;;;5099560;28;1026;-36
2022/04/02 04:55:19;;;;;;;;;;;21.60;46.90;;;;;;5099091;28;1011;-36
2022/04/02 04:57:48;;;;;;;;;;;21.60;46.90;;;;;;5099615;28;931;-37
2022/04/02 05:00:16;;;;;;;;;;;21.60;46.90;;;;;;5098981;28;924;-36
2022/04/02 05:02:44;;;;;;;;;;;21.60;46.90;;;;;;5099416;28;1983;-38
2022/04/02 05:05:12;;;;;;;;;;;21.60;46.90;;;;;;5099729;28;999;-36
2022/04/02 05:07:39;;;;;;;;;;;21.60;47.00;;;;;;5099632;28;1000;-37
2022/04/02 05:10:06;;;;;;;;;;;21.60;46.80;;;;;;5099581;28;964;-37
2022/04/02 05:12:33;;;;;;;;;;;21.60;46.80;;;;;;5099364;28;952;-37
2022/04/02 05:15:00;;;;;;;;;;;21.60;46.80;;;;;;5099140;28;997;-38
2022/04/02 05:17:27;;;;;;;;;;;21.60;46.90;;;;;;5099182;28;1011;-36
2022/04/02 05:19:55;;;;;;;;;;;21.60;47.00;;;;;;5098638;28;872;-38
2022/04/02 05:22:22;;;;;;;;;;;21.50;47.00;;;;;;5099385;28;1985;-36
2022/04/02 05:24:48;;;;;;;;;;;21.50;47.00;;;;;;5099044;28;936;-36
2022/04/02 05:27:15;;;;;;;;;;;21.50;46.80;;;;;;5099202;28;975;-37
2022/04/02 05:29:43;;;;;;;;;;;21.50;46.90;;;;;;5098692;28;991;-37
2022/04/02 05:32:10;;;;;;;;;;;21.50;47.00;;;;;;5098812;28;1009;-38
2022/04/02 05:34:37;;;;;;;;;;;21.50;46.90;;;;;;5099427;28;936;-36
2022/04/02 05:37:06;;;;;;;;;;;21.50;46.80;;;;;;5098943;28;1051;-47
2022/04/02 05:39:33;;;;;;;;;;;21.50;46.80;;;;;;5098902;28;948;-37
2022/04/02 05:42:00;;;;;;;;;;;21.50;46.80;;;;;;5098544;28;1027;-36
2022/04/02 05:44:26;;;;;;;;;;;21.50;46.90;;;;;;5096411;28;1988;-37
2022/04/02 05:46:53;;;;;;;;;;;21.50;46.90;;;;;;5098015;28;969;-36
2022/04/02 05:49:20;;;;;;;;;;;21.50;46.70;;;;;;5097078;28;992;-37
2022/04/02 05:51:47;;;;;;;;;;;21.50;46.80;;;;;;5098038;28;853;-37
2022/04/02 05:54:15;;;;;;;;;;;21.50;46.80;;;;;;5098418;28;1677;-37
2022/04/02 05:56:42;;;;;;;;;;;21.50;46.80;;;;;;5098076;28;988;-37
2022/04/02 05:59:09;;;;;;;;;;;21.50;46.80;;;;;;5098557;28;1000;-38
2022/04/02 06:01:36;;;;;;;;;;;21.50;46.80;;;;;;5098491;28;1004;-36
2022/04/02 06:04:03;;;;;;;;;;;21.50;46.80;;;;;;5098425;28;1972;-37
2022/04/02 06:06:30;;;;;;;;;;;21.50;46.80;;;;;;5098399;28;988;-38
2022/04/02 06:08:57;;;;;;;;;;;21.50;46.80;;;;;;5097554;28;932;-37
2022/04/02 06:11:25;;;;;;;;;;;21.50;46.80;;;;;;5097990;28;960;-38
2022/04/02 06:13:52;;;;;;;;;;;21.50;46.70;;;;;;5097203;28;1060;-37
2022/04/02 06:16:19;;;;;;;;;;;21.50;46.70;;;;;;5098025;28;1058;-37
2022/04/02 06:18:45;;;;;;;;;;;21.40;46.80;;;;;;5097795;28;877;-38
2022/04/02 06:21:12;;;;;;;;;;;21.50;46.80;;;;;;5098155;28;1149;-37
2022/04/02 06:23:39;;;;;;;;;;;21.50;46.70;;;;;;5098097;28;1905;-38
2022/04/02 06:26:05;;;;;;;;;;;21.50;46.80;;;;;;5097862;28;1012;-37
2022/04/02 06:28:34;;;;;;;;;;;21.50;46.70;;;;;;5098086;28;976;-37
2022/04/02 06:31:00;;;;;;;;;;;21.50;47.80;;;;;;5098022;28;1010;-38
2022/04/02 06:33:27;;;;;;;;;;;21.50;46.70;;;;;;5098308;28;971;-36
2022/04/02 06:35:54;;;;;;;;;;;21.50;46.70;;;;;;5098621;28;1011;-37
2022/04/02 06:38:21;;;;;;;;;;;21.50;46.50;;;;;;5098137;28;1011;-37
2022/04/02 06:40:47;;;;;;;;;;;21.50;46.70;;;;;;5098120;28;967;-37
2022/04/02 06:43:14;;;;;;;;;;;21.50;46.70;;;;;;5097133;28;1901;-36
2022/04/02 06:45:42;;;;;;;;;;;21.50;46.70;;;;;;5097239;28;1437;-36
2022/04/02 06:48:09;;;;;;;;;;;21.40;46.60;;;;;;5096019;28;1086;-37
2022/04/02 06:50:36;;;;;;;;;;;21.40;46.70;;;;;;5096936;28;979;-38
2022/04/02 06:53:03;;;;;;;;;;;21.40;46.60;;;;;;5096877;28;996;-37
2022/04/02 06:55:32;;;;;;;;;;;21.40;46.70;;;;;;5095895;28;1020;-36
2022/04/02 06:57:59;;;;;;;;;;;21.40;46.80;;;;;;5096546;28;1017;-36
2022/04/02 07:00:26;;;;;;;;;;;21.40;46.70;;;;;;5097227;28;1007;-36
2022/04/02 07:02:54;;;;;;;;;;;21.40;46.70;;;;;;5097392;28;1910;-37
2022/04/02 07:05:21;;;;;;;;;;;21.40;46.70;;;;;;5097497;28;1010;-36
2022/04/02 07:07:49;;;;;;;;;;;21.40;46.70;;;;;;5097352;28;1041;-36
2022/04/02 07:10:16;;;;;;;;;;;21.40;46.80;;;;;;5098193;28;884;-37
2022/04/02 07:12:44;;;;;;;;;;;21.30;46.70;;;;;;5097104;28;961;-36
2022/04/02 07:15:10;;;;;;;;;;;21.30;46.70;;;;;;5097531;28;1012;-37
2022/04/02 07:17:37;;;;;;;;;;;21.30;46.70;;;;;;5097433;28;1024;-37
2022/04/02 07:20:07;;;;;;;;;;;21.40;46.70;;;;;;5097737;28;920;-37
2022/04/02 07:22:35;;;;;;;;;;;21.40;46.70;;;;;;5100941;28;952;-38
2022/04/02 07:25:04;;;;;;;;;;;21.40;46.60;;;;;;5100900;28;1976;-38
2022/04/02 07:27:31;;;;;;;;;;;21.40;46.70;;;;;;5100729;28;1039;-34
2022/04/02 07:29:58;;;;;;;;;;;21.40;46.70;;;;;;5101233;28;1025;-37
2022/04/02 07:32:25;;;;;;;;;;;21.40;46.70;;;;;;5100709;28;1091;-41
2022/04/02 07:34:52;;;;;;;;;;;21.40;46.60;;;;;;5100567;28;916;-42
2022/04/02 07:37:28;;;;;;;;;;;21.40;46.70;;;;;;5100858;28;966;-42
2022/04/02 07:39:56;;;;;;;;;;;21.40;46.70;;;;;;5101526;28;1004;-43
2022/04/02 07:42:26;;;;;;;;;;;21.40;46.60;;;;;;5101320;28;1118;-38
2022/04/02 07:45:01;;;;;;;;;;;21.40;46.60;;;;;;5100567;28;1906;-38
2022/04/02 07:47:30;;;;;;;;;;;21.40;46.60;;;;;;5100764;28;1003;-38
2022/04/02 07:50:02;;;;;;;;;;;21.40;46.70;;;;;;5100837;28;940;-40
2022/04/02 07:52:30;;;;;;;;;;;21.40;46.60;;;;;;5100676;28;940;-37
2022/04/02 07:54:57;;;;;;;;;;;21.30;46.70;;;;;;5100673;28;1008;-37
2022/04/02 07:57:28;;;;;;;;;;;21.40;46.60;;;;;;5099987;28;1048;-38
2022/04/02 07:59:58;;;;;;;;;;;21.40;46.70;;;;;;5099788;28;1043;-38
2022/04/02 08:02:39;;;;;;;;;;;21.40;46.60;;;;;;5099342;28;1015;-38
2022/04/02 08:05:07;;;;;;;;;;;21.40;46.60;;;;;;5099723;28;1906;-38
2022/04/02 08:07:36;;;;;;;;;;;21.50;46.60;;;;;;5100098;28;992;-38
2022/04/02 08:10:05;;;;;;;;;;;21.50;46.50;;;;;;5100071;28;1066;-40
2022/04/02 08:12:33;;;;;;;;;;;21.50;46.60;;;;;;5099767;28;1018;-38
2022/04/02 08:15:00;;;;;;;;;;;21.40;46.60;;;;;;5099887;28;943;-38
2022/04/02 08:17:28;;;;;;;;;;;21.50;46.40;;;;;;5099215;28;976;-37
2022/04/02 08:19:54;;;;;;;;;;;21.60;46.40;;;;;;5100163;28;2058;-39
2022/04/02 08:22:21;;;;;;;;;;;21.60;46.30;;;;;;5099681;28;988;-37
2022/04/02 08:24:49;;;;;;;;;;;21.60;46.40;;;;;;5099315;28;1906;-38
2022/04/02 08:27:23;;;;;;;;;;;21.60;46.10;;;;;;5099221;28;1007;-38
2022/04/02 08:29:53;;;;;;;;;;;21.70;46.30;;;;;;5099839;28;972;-37
2022/04/02 08:32:26;;;;;;;;;;;21.70;46.20;;;;;;5099424;28;1012;-38
2022/04/02 08:35:01;;;;;;;;;;;21.70;46.00;;;;;;5098567;28;932;-39
2022/04/02 08:37:29;;;;;;;;;;;21.80;46.10;;;;;;5098457;28;936;-37
2022/04/02 08:40:02;;;;;;;;;;;21.80;46.20;;;;;;5098803;28;992;-37
2022/04/02 08:42:44;;;;;;;;;;;21.80;46.10;;;;;;5099083;28;1065;-37
2022/04/02 08:45:11;;;;;;;;;;;21.80;45.90;;;;;;5097982;28;1991;-37
2022/04/02 08:47:53;;;;;;;;;;;21.80;46.10;;;;;;5097966;28;1015;-38
2022/04/02 08:50:24;;;;;;;;;;;21.80;46.00;;;;;;5086354;28;1284;-38
2022/04/02 08:52:52;;;;;;;;;;;21.80;45.80;;;;;;5098641;28;1024;-37
2022/04/02 08:55:20;;;;;;;;;;;21.80;45.90;;;;;;5098763;28;1008;-38
2022/04/02 08:58:17;;;;;;;;;;;21.90;45.80;;;;;;5098128;28;1000;-37
2022/04/02 09:00:54;;;;;;;;;;;21.80;45.70;;;;;;5097745;28;935;-34
2022/04/02 09:03:36;;;;;;;;;;;21.80;45.70;;;;;;5097458;28;1901;-35
2022/04/02 09:06:14;;;;;;;;;;;21.90;45.90;;;;;;5098047;28;822;-34
2022/04/02 09:08:55;;;;;;;;;;;21.90;45.60;;;;;;5099217;28;986;-34
2022/04/02 09:11:24;;;;;;;;;;;21.90;45.70;;;;;;5098281;28;1116;-34
2022/04/02 09:14:05;;;;;;;;;;;21.90;45.60;;;;;;5098330;28;1005;-34
2022/04/02 09:16:36;;;;;;;;;;;21.80;45.90;;;;;;5097634;28;1788;-37
2022/04/02 09:19:12;;;;;;;;;;;21.80;45.80;;;;;;5097268;28;936;-37
2022/04/02 09:21:48;;;;;;;;;;;21.80;46.00;;;;;;5096993;28;972;-36
2022/04/02 09:24:21;;;;;;;;;;;21.80;46.00;;;;;;5097415;28;1910;-38
2022/04/02 09:27:07;;;;;;;;;;;21.80;46.40;;;;;;5097549;28;1002;-36
2022/04/02 09:29:43;;;;;;;;;;;21.80;46.40;;;;;;5097521;28;842;-37
2022/04/02 09:32:21;;;;;;;;;;;21.70;46.40;;;;;;5097493;28;1050;-38
2022/04/02 09:35:03;;;;;;;;;;;21.70;46.50;;;;;;5096630;28;1022;-37
2022/04/02 09:37:36;;;;;;;;;;;21.70;46.40;;;;;;5096774;28;994;-37
2022/04/02 09:40:04;;;;;;;;;;;21.70;46.60;;;;;;5096671;28;976;-38
2022/04/02 09:42:38;;;;;;;;;;;21.70;46.60;;;;;;5096522;28;1154;-37
2022/04/02 09:45:08;;;;;;;;;;;21.80;46.40;;;;;;5097366;28;1980;-36
2022/04/02 09:47:46;;;;;;;;;;;21.70;46.40;;;;;;5097410;28;994;-36
2022/04/02 09:50:14;;;;;;;;;;;21.70;46.50;;;;;;5096665;28;1025;-37
2022/04/02 09:52:44;;;;;;;;;;;21.70;46.60;;;;;;5097100;28;952;-36
2022/04/02 09:55:12;;;;;;;;;;;21.70;46.50;;;;;;5097463;28;1031;-37
2022/04/02 09:57:57;;;;;;;;;;;21.70;46.60;;;;;;5096337;28;1009;-37
2022/04/02 10:00:29;;;;;;;;;;;21.70;46.40;;;;;;5085246;28;1445;-36
2022/04/02 10:03:02;;;;;;;;;;;21.80;46.70;;;;;;5097224;28;979;-36
2022/04/02 10:05:35;;;;;;;;;;;21.70;46.50;;;;;;5096804;28;1901;-37
2022/04/02 10:08:04;;;;;;;;;;;21.80;46.50;;;;;;5096970;28;947;-38
2022/04/02 10:10:31;;;;;;;;;;;21.80;46.50;;;;;;5096981;28;1865;-37
2022/04/02 10:12:58;;;;;;;;;;;21.70;46.50;;;;;;5097669;28;940;-37
2022/04/02 10:15:26;;;;;;;;;;;21.70;46.50;;;;;;5097654;28;916;-37
2022/04/02 10:17:53;;;;;;;;;;;21.70;46.40;;;;;;5097109;28;1007;-37
2022/04/02 10:20:23;;;;;;;;;;;21.70;46.20;;;;;;5098790;28;1007;-39
2022/04/02 10:22:56;;;;;;;;;;;21.80;46.20;;;;;;5098106;28;987;-37
2022/04/02 10:25:28;;;;;;;;;;;21.80;46.30;;;;;;5097526;28;1977;-37
2022/04/02 10:27:55;;;;;;;;;;;21.80;46.10;;;;;;5097876;28;946;-37
2022/04/02 10:30:25;;;;;;;;;;;21.80;46.30;;;;;;5097629;28;996;-38
2022/04/02 10:32:54;;;;;;;;;;;21.80;46.40;;;;;;5097472;28;1011;-37
2022/04/02 10:35:22;;;;;;;;;;;21.80;46.40;;;;;;5096642;28;909;-39
2022/04/02 10:38:03;;;;;;;;;;;21.80;46.20;;;;;;5096831;28;892;-40
2022/04/02 10:40:31;;;;;;;;;;;21.80;46.30;;;;;;5096557;28;948;-39
2022/04/02 10:43:02;;;;;;;;;;;21.80;46.10;;;;;;5096120;28;1178;-38
2022/04/02 10:45:29;;;;;;;;;;;21.80;46.20;;;;;;5096945;28;1975;-37
2022/04/02 10:48:05;;;;;;;;;;;21.80;45.90;;;;;;5097456;28;1039;-38
2022/04/02 10:50:32;;;;;;;;;;;21.80;46.10;;;;;;5097009;28;979;-38
2022/04/02 10:53:03;;;;;;;;;;;21.80;47.40;;;;;;5096940;28;1012;-38
2022/04/02 10:55:30;;;;;;;;;;;21.80;46.30;;;;;;5098869;28;975;-38
2022/04/02 10:57:59;;;;;;;;;;;21.80;45.90;;;;;;5100243;28;974;-37
2022/04/02 11:00:26;;;;;;;;;;;21.80;46.10;;;;;;5099987;28;932;-37
2022/04/02 11:03:01;;;;;;;;;;;21.80;46.10;;;;;;5100482;28;1017;-37
2022/04/02 11:05:34;;;;;;;;;;;21.80;46.00;;;;;;5100028;28;1917;-38
2022/04/02 11:08:04;;;;;;;;;;;21.80;46.10;;;;;;5099935;28;961;-37
2022/04/02 11:10:34;;;;;;;;;;;21.80;45.80;;;;;;5100236;28;980;-37
2022/04/02 11:13:01;;;;;;;;;;;21.80;45.70;;;;;;5100623;28;1036;-38
2022/04/02 11:15:28;;;;;;;;;;;21.80;45.70;;;;;;5099910;28;936;-39
2022/04/02 11:17:56;;;;;;;;;;;21.80;45.80;;;;;;5099812;28;984;-38
2022/04/02 11:20:23;;;;;;;;;;;21.80;45.70;;;;;;5100181;28;1026;-38
2022/04/02 11:23:04;;;;;;;;;;;21.80;45.90;;;;;;5100759;28;968;-38
2022/04/02 11:25:35;;;;;;;;;;;21.80;45.90;;;;;;5100041;28;1979;-38
2022/04/02 11:28:09;;;;;;;;;;;21.80;45.70;;;;;;5100306;28;1674;-38
2022/04/02 11:30:37;;;;;;;;;;;21.80;45.70;;;;;;5099639;28;960;-38
2022/04/02 11:33:05;;;;;;;;;;;21.80;45.80;;;;;;5100091;28;936;-37
2022/04/02 11:35:32;;;;;;;;;;;21.80;45.80;;;;;;5100177;28;925;-38
2022/04/02 11:38:09;;;;;;;;;;;21.80;45.80;;;;;;5099579;28;1004;-38
2022/04/02 11:40:39;;;;;;;;;;;21.80;45.60;;;;;;5099656;28;972;-37
2022/04/02 11:43:06;;;;;;;;;;;21.80;45.40;;;;;;5099716;28;1051;-38
2022/04/02 11:45:36;;;;;;;;;;;21.80;45.40;;;;;;5100895;28;1976;-38
2022/04/02 11:48:09;;;;;;;;;;;21.80;45.40;;;;;;5100353;28;1110;-38
2022/04/02 11:50:38;;;;;;;;;;;21.90;45.40;;;;;;5100244;28;956;-38
2022/04/02 11:53:08;;;;;;;;;;;21.90;45.50;;;;;;5099115;28;972;-37
2022/04/02 11:55:35;;;;;;;;;;;21.80;45.50;;;;;;5099634;28;952;-37
2022/04/02 11:58:03;;;;;;;;;;;21.90;45.50;;;;;;5100173;28;947;-37
2022/04/02 12:00:31;;;;;;;;;;;21.90;45.40;;;;;;5099322;28;1003;-38
2022/04/02 12:02:58;;;;;;;;;;;21.80;45.50;;;;;;5098453;28;1811;-39
2022/04/02 12:05:35;;;;;;;;;;;21.90;45.40;;;;;;5099572;28;1985;-38
2022/04/02 12:08:02;;;;;;;;;;;21.90;45.30;;;;;;5098847;28;969;-37
2022/04/02 12:10:32;;;;;;;;;;;21.80;45.40;;;;;;5099257;28;1000;-38
2022/04/02 12:13:00;;;;;;;;;;;21.90;45.60;;;;;;5098144;28;1595;-38
2022/04/02 12:15:27;;;;;;;;;;;21.90;45.40;;;;;;5078724;28;1024;-37
2022/04/02 12:18:00;;;;;;;;;;;21.90;45.20;;;;;;5079921;28;1058;-39
2022/04/02 12:20:28;;;;;;;;;;;21.80;45.50;;;;;;5078634;28;1020;-38
2022/04/02 12:23:05;;;;;;;;;;;21.90;45.40;;;;;;5078989;28;1027;-38
2022/04/02 12:25:34;;;;;;;;;;;21.80;45.50;;;;;;5078357;28;1898;-37
2022/04/02 12:28:00;;;;;;;;;;;21.90;45.40;;;;;;5079758;28;936;-39
2022/04/02 12:30:33;;;;;;;;;;;21.90;45.20;;;;;;5078912;28;925;-38
2022/04/02 12:33:06;;;;;;;;;;;21.90;45.40;;;;;;5079249;28;973;-38
2022/04/02 12:35:33;;;;;;;;;;;21.90;45.40;;;;;;5078339;28;1000;-38
2022/04/02 12:38:02;;;;;;;;;;;21.90;45.40;;;;;;5077168;28;968;-38
2022/04/02 12:40:29;;;;;;;;;;;21.90;45.50;;;;;;5077863;28;996;-39
2022/04/02 12:43:02;;;;;;;;;;;21.90;45.30;;;;;;5078332;28;1443;-38
2022/04/02 12:45:29;;;;;;;;;;;21.80;45.40;;;;;;5077968;28;1905;-47
2022/04/02 12:47:58;;;;;;;;;;;21.80;45.50;;;;;;5078355;28;999;-38
2022/04/02 12:50:25;;;;;;;;;;;21.80;45.70;;;;;;5078766;28;965;-39
2022/04/02 12:52:52;;;;;;;;;;;21.80;45.70;;;;;;5078378;28;1009;-38
2022/04/02 12:55:22;;;;;;;;;;;21.80;46.90;;;;;;5077732;28;1003;-38
2022/04/02 12:58:05;;;;;;;;;;;21.90;45.90;;;;;;5078044;28;964;-38
2022/04/02 13:00:33;;;;;;;;;;;21.80;45.70;;;;;;5077962;28;1012;-38
2022/04/02 13:03:00;;;;;;;;;;;21.90;45.80;;;;;;5077743;28;1108;-38
2022/04/02 13:05:43;;;;;;;;;;;21.90;45.90;;;;;;5077383;28;1898;-37
2022/04/02 13:08:19;;;;;;;;;;;21.80;45.90;;;;;;5078144;28;1028;-37
2022/04/02 13:10:45;;;;;;;;;;;21.80;46.00;;;;;;5077395;28;932;-39
2022/04/02 13:13:14;;;;;;;;;;;21.80;46.00;;;;;;5076737;28;993;-38
2022/04/02 13:15:50;;;;;;;;;;;21.80;46.00;;;;;;5076891;28;996;-38
2022/04/02 13:21:04;;;;;;;;;;;21.80;46.00;;;;;;5077923;28;701;-38
2022/04/02 13:23:46;;;;;;;;;;;21.80;46.00;;;;;;5077155;28;969;-39
2022/04/02 13:26:13;;;;;;;;;;;21.80;46.20;;;;;;5076919;28;1906;-38
2022/04/02 13:28:55;;;;;;;;;;;21.80;46.10;;;;;;5077375;28;1021;-39
2022/04/02 13:31:25;;;;;;;;;;;21.80;46.10;;;;;;5077488;28;1863;-38
2022/04/02 13:34:10;;;;;;;;;;;21.80;45.90;;;;;;5076724;28;940;-39
2022/04/02 13:36:42;;;;;;;;;;;21.80;45.70;;;;;;5063174;28;1382;-37
2022/04/02 13:39:11;;;;;;;;;;;21.80;45.60;;;;;;5076350;28;1024;-38
2022/04/02 13:41:39;;;;;;;;;;;21.90;45.00;;;;;;5075506;28;1028;-38
2022/04/02 13:44:09;;;;;;;;;;;22.00;44.80;;;;;;5076605;28;1057;-41
2022/04/02 13:46:38;;;;;;;;;;;22.10;46.00;;;;;;5077565;28;1978;-42
2022/04/02 13:49:06;;;;;;;;;;;22.20;45.40;;;;;;5076682;28;1006;-38
2022/04/02 13:51:42;;;;;;;;;;;22.20;45.00;;;;;;5076391;28;957;-38
2022/04/02 13:54:10;;;;;;;;;;;22.20;44.70;;;;;;5077213;28;956;-37
2022/04/02 13:56:37;;;;;;;;;;;22.20;44.70;;;;;;5076890;28;1008;-38
2022/04/02 13:59:07;;;;;;;;;;;22.20;44.80;;;;;;5077327;28;1104;-38
2022/04/02 14:01:36;;;;;;;;;;;22.20;44.90;;;;;;5075943;28;981;-39
2022/04/02 14:04:05;;;;;;;;;;;22.20;45.00;;;;;;5077349;28;1031;-39
2022/04/02 14:06:33;;;;;;;;;;;22.10;45.00;;;;;;5076040;28;1919;-40
2022/04/02 14:09:03;;;;;;;;;;;22.10;45.00;;;;;;5077284;28;1219;-39
2022/04/02 14:11:32;;;;;;;;;;;22.10;45.00;;;;;;5077088;28;1028;-39
2022/04/02 14:14:12;;;;;;;;;;;22.10;45.00;;;;;;5077486;28;987;-41
2022/04/02 14:16:40;;;;;;;;;;;22.10;45.10;;;;;;5076190;28;963;-40
2022/04/02 14:19:08;;;;;;;;;;;22.10;45.20;;;;;;5077116;28;980;-44
2022/04/02 14:21:36;;;;;;;;;;;22.20;45.20;;;;;;5077213;28;935;-45
2022/04/02 14:24:07;;;;;;;;;;;22.20;45.00;;;;;;5076770;28;1015;-45
2022/04/02 14:26:49;;;;;;;;;;;22.10;45.20;;;;;;5077044;28;1967;-45
2022/04/02 14:29:28;;;;;;;;;;;22.20;45.30;;;;;;5074491;28;1840;-44
2022/04/02 14:32:09;;;;;;;;;;;22.20;45.20;;;;;;5081034;28;1018;-45
2022/04/02 14:35:01;;;;;;;;;;;22.20;45.30;;;;;;5080918;28;975;-45
2022/04/02 14:37:42;;;;;;;;;;;22.20;45.20;;;;;;5079790;28;1008;-39
2022/04/02 14:40:13;;;;;;;;;;;22.20;45.80;;;;;;5081423;28;916;-38
2022/04/02 14:42:52;;;;;;;;;;;22.40;45.40;;;;;;5080273;28;995;-38
2022/04/02 14:45:39;;;;;;;;;;;22.30;45.40;;;;;;5080195;28;1979;-39
2022/04/02 14:48:35;;;;;;;;;;;22.40;45.30;;;;;;5047284;28;1848;-39
2022/04/02 14:51:14;;;;;;;;;;;22.30;45.20;;;;;;5034277;28;1169;-42
2022/04/02 14:53:59;;;;;;;;;;;22.30;45.30;;;;;;5080945;28;1114;-39
2022/04/02 14:56:40;;;;;;;;;;;22.20;45.20;;;;;;5079483;28;929;-41
2022/04/02 14:59:25;;;;;;;;;;;22.30;45.30;;;;;;5077168;28;1300;-38